Time,TemperatureF,DewpointF,PressureIn,WindDirection,WindDirectionDegrees,WindSpeedMPH,WindSpeedGustMPH,Humidity,HourlyPrecipIn,Conditions,Clouds,dailyrainin,SoftwareType,DateUTC
2013-04-26 00:01:00,45.4,28.4,29.91,SE,125,0.0,0.0,51,0.00,,FEW250,0.00,VWS V14.01,2013-04-26 06:01:00,
2013-04-26 00:06:00,45.1,26.6,29.91,SE,125,0.0,0.0,48,0.00,,FEW250,0.00,VWS V14.01,2013-04-26 06:06:00,
2013-04-26 00:11:00,45.7,25.6,29.91,NW,314,0.0,0.0,45,0.00,,FEW250,0.00,VWS V14.01,2013-04-26 06:11:00,
2013-04-26 00:16:00,46.5,27.4,29.88,NW,314,0.0,0.0,47,0.00,,FEW250,0.00,VWS V14.01,2013-04-26 06:16:00,
2013-04-26 00:21:00,46.1,28.0,29.88,NW,314,0.0,0.0,49,0.00,,FEW250,0.00,VWS V14.01,2013-04-26 06:21:00,
2013-04-26 00:26:00,45.5,28.9,29.88,NW,314,0.0,0.0,52,0.00,,FEW250,0.00,VWS V14.01,2013-04-26 06:26:00,
2013-04-26 00:31:00,45.2,28.6,29.89,NW,314,0.0,0.0,52,0.00,,FEW250,0.00,VWS V14.01,2013-04-26 06:31:00,
2013-04-26 00:36:00,45.1,28.5,29.89,NW,314,0.0,0.0,52,0.00,,FEW250,0.00,VWS V14.01,2013-04-26 06:36:00,
2013-04-26 00:41:00,44.9,28.4,29.89,NW,314,0.0,0.0,52,0.00,,FEW250,0.00,VWS V14.01,2013-04-26 06:41:00,
2013-04-26 00:46:00,45.2,26.2,29.89,NW,325,0.0,0.0,47,0.00,,FEW250,0.00,VWS V14.01,2013-04-26 06:46:00,
2013-04-26 00:51:00,45.7,28.6,29.89,NW,325,0.0,0.0,51,0.00,,FEW250,0.00,VWS V14.01,2013-04-26 06:51:00,
2013-04-26 00:56:00,45.7,28.6,29.89,NW,325,0.0,0.0,51,0.00,,FEW250,0.00,VWS V14.01,2013-04-26 06:56:00,
2013-04-26 01:01:00,45.5,26.5,29.88,NW,325,0.0,0.0,47,0.00,,FEW250,0.00,VWS V14.01,2013-04-26 07:01:00,
2013-04-26 01:06:00,45.8,26.7,29.88,NW,325,0.0,0.0,47,0.00,,FEW250,0.00,VWS V14.01,2013-04-26 07:06:00,
2013-04-26 01:11:00,46.1,26.5,29.88,NW,325,0.0,0.0,46,0.00,,FEW250,0.00,VWS V14.01,2013-04-26 07:11:00,
2013-04-26 01:16:00,46.2,27.1,29.89,NW,325,0.0,0.0,47,0.00,,FEW250,0.00,VWS V14.01,2013-04-26 07:16:00,
2013-04-26 01:21:00,47.0,26.2,29.89,NW,317,0.0,0.0,44,0.00,,FEW250,0.00,VWS V14.01,2013-04-26 07:21:00,
2013-04-26 01:26:00,47.6,26.2,29.89,NW,318,0.0,0.0,43,0.00,,FEW250,0.00,VWS V14.01,2013-04-26 07:26:00,
2013-04-26 01:31:00,47.6,26.2,29.88,North,0,0.0,0.0,43,0.00,,FEW250,0.00,VWS V14.01,2013-04-26 07:31:00,
2013-04-26 01:36:00,47.9,27.0,29.88,North,0,0.0,0.0,44,0.00,,SCT250,0.00,VWS V14.01,2013-04-26 07:36:00,
2013-04-26 01:41:00,47.3,26.5,29.88,North,0,0.0,0.0,44,0.00,,SCT250,0.00,VWS V14.01,2013-04-26 07:41:00,
2013-04-26 01:46:00,47.0,26.8,29.88,North,1,0.0,0.0,45,0.00,,SCT250,0.00,VWS V14.01,2013-04-26 07:46:00,
2013-04-26 01:51:00,47.3,26.5,29.88,North,4,0.0,0.0,44,0.00,,SCT250,0.00,VWS V14.01,2013-04-26 07:51:00,
2013-04-26 01:56:00,47.6,27.3,29.88,NW,310,0.0,0.0,45,0.00,,SCT250,0.00,VWS V14.01,2013-04-26 07:56:00,
2013-04-26 02:01:00,47.6,26.8,29.89,NW,326,0.0,0.0,44,0.00,,SCT250,0.00,VWS V14.01,2013-04-26 08:01:00,
2013-04-26 02:06:00,47.4,27.1,29.89,NW,315,0.0,0.0,45,0.00,,SCT250,0.00,VWS V14.01,2013-04-26 08:06:00,
2013-04-26 02:11:00,47.4,27.7,29.89,NNW,328,0.0,0.0,46,0.00,,SCT250,0.00,VWS V14.01,2013-04-26 08:11:00,
2013-04-26 02:16:00,47.1,28.4,29.87,NNW,328,0.0,0.0,48,0.00,,SCT250,0.00,VWS V14.01,2013-04-26 08:16:00,
2013-04-26 02:21:00,46.8,27.1,29.87,NW,319,0.0,0.0,46,0.00,,SCT250,0.00,VWS V14.01,2013-04-26 08:21:00,
2013-04-26 02:26:00,46.8,28.2,29.87,NW,319,0.0,0.0,48,0.00,,SCT250,0.00,VWS V14.01,2013-04-26 08:26:00,
2013-04-26 02:31:00,46.7,27.0,29.87,North,349,0.0,0.0,46,0.00,,SCT250,0.00,VWS V14.01,2013-04-26 08:31:00,
2013-04-26 02:36:00,47.4,27.1,29.87,North,358,0.0,0.0,45,0.00,,BKN250,0.00,VWS V14.01,2013-04-26 08:36:00,
2013-04-26 02:41:00,47.6,28.4,29.87,North,358,0.0,0.0,47,0.00,,BKN250,0.00,VWS V14.01,2013-04-26 08:41:00,
2013-04-26 02:46:00,47.3,27.6,29.87,North,358,0.0,0.0,46,0.00,,BKN250,0.00,VWS V14.01,2013-04-26 08:46:00,
2013-04-26 02:51:00,47.1,26.9,29.87,North,358,0.0,0.0,45,0.00,,BKN250,0.00,VWS V14.01,2013-04-26 08:51:00,
2013-04-26 02:56:00,47.3,27.6,29.87,North,353,0.0,0.0,46,0.00,,BKN250,0.00,VWS V14.01,2013-04-26 08:56:00,
2013-04-26 03:01:00,47.0,28.9,29.86,North,353,0.0,0.0,49,0.00,,BKN250,0.00,VWS V14.01,2013-04-26 09:01:00,
2013-04-26 03:06:00,46.2,29.1,29.86,North,353,0.0,0.0,51,0.00,,BKN250,0.00,VWS V14.01,2013-04-26 09:06:00,
2013-04-26 03:11:00,45.7,28.6,29.86,North,353,0.0,0.0,51,0.00,,BKN250,0.00,VWS V14.01,2013-04-26 09:11:00,
2013-04-26 03:16:00,45.1,28.5,29.87,North,353,0.0,0.0,52,0.00,,BKN250,0.00,VWS V14.01,2013-04-26 09:16:00,
2013-04-26 03:21:00,44.8,29.2,29.87,North,353,0.0,0.0,54,0.00,,BKN250,0.00,VWS V14.01,2013-04-26 09:21:00,
2013-04-26 03:26:00,44.5,28.9,29.87,North,356,0.0,0.0,54,0.00,,BKN250,0.00,VWS V14.01,2013-04-26 09:26:00,
2013-04-26 03:31:00,44.3,29.2,29.88,ESE,123,0.0,0.0,55,0.00,,BKN250,0.00,VWS V14.01,2013-04-26 09:31:00,
2013-04-26 03:36:00,44.1,29.4,29.88,ESE,123,0.0,0.0,56,0.00,,BKN250,0.00,VWS V14.01,2013-04-26 09:36:00,
2013-04-26 03:41:00,43.8,29.1,29.88,ESE,123,0.0,0.0,56,0.00,,BKN250,0.00,VWS V14.01,2013-04-26 09:41:00,
2013-04-26 03:46:00,43.5,29.7,29.88,ESE,123,0.0,0.0,58,0.00,,BKN250,0.00,VWS V14.01,2013-04-26 09:46:00,
2013-04-26 03:51:00,43.2,29.4,29.88,ESE,123,0.0,0.0,58,0.00,,BKN250,0.00,VWS V14.01,2013-04-26 09:51:00,
2013-04-26 03:56:00,43.2,29.4,29.88,ESE,123,0.0,0.0,58,0.00,,BKN250,0.00,VWS V14.01,2013-04-26 09:56:00,
2013-04-26 04:01:00,43.1,28.9,29.87,ESE,122,0.0,0.0,57,0.00,,BKN250,0.00,VWS V14.01,2013-04-26 10:01:00,
2013-04-26 04:06:00,43.5,28.9,29.87,ESE,120,0.0,0.0,56,0.00,,BKN250,0.00,VWS V14.01,2013-04-26 10:06:00,
2013-04-26 04:11:00,43.9,28.8,29.87,ESE,117,0.0,0.0,55,0.00,,BKN250,0.00,VWS V14.01,2013-04-26 10:11:00,
2013-04-26 04:16:00,44.3,28.7,29.88,ESE,117,0.0,0.0,54,0.00,,BKN250,0.00,VWS V14.01,2013-04-26 10:16:00,
2013-04-26 04:21:00,44.6,28.1,29.88,North,358,0.0,0.0,52,0.00,,BKN250,0.00,VWS V14.01,2013-04-26 10:21:00,
2013-04-26 04:26:00,45.7,27.1,29.88,North,8,0.0,0.0,48,0.00,,BKN250,0.00,VWS V14.01,2013-04-26 10:26:00,
2013-04-26 04:31:00,46.7,27.6,29.87,NNW,338,0.0,0.0,47,0.00,,BKN250,0.00,VWS V14.01,2013-04-26 10:31:00,
2013-04-26 04:36:00,47.1,28.9,29.87,NNW,340,0.0,0.0,49,0.00,,BKN230,0.00,VWS V14.01,2013-04-26 10:36:00,
2013-04-26 04:41:00,46.7,29.1,29.87,NNW,340,0.0,0.0,50,0.00,,BKN230,0.00,VWS V14.01,2013-04-26 10:41:00,
2013-04-26 04:46:00,46.4,27.8,29.86,NNW,347,0.0,0.0,48,0.00,,BKN230,0.00,VWS V14.01,2013-04-26 10:46:00,
2013-04-26 04:51:00,47.1,27.4,29.86,NW,312,0.0,0.0,46,0.00,,BKN230,0.00,VWS V14.01,2013-04-26 10:51:00,
2013-04-26 04:56:00,48.0,27.1,29.86,NW,323,0.0,0.0,44,0.00,,BKN230,0.00,VWS V14.01,2013-04-26 10:56:00,
2013-04-26 05:01:00,48.6,27.1,29.85,NNE,13,0.0,0.0,43,0.00,,BKN230,0.00,VWS V14.01,2013-04-26 11:01:00,
2013-04-26 05:06:00,48.6,28.2,29.85,NW,325,0.0,0.0,45,0.00,,BKN230,0.00,VWS V14.01,2013-04-26 11:06:00,
2013-04-26 05:11:00,48.6,27.1,29.85,NNW,330,0.0,0.0,43,0.00,,BKN230,0.00,VWS V14.01,2013-04-26 11:11:00,
2013-04-26 05:16:00,48.5,28.7,29.84,NNW,330,0.0,0.0,46,0.00,,BKN230,0.00,VWS V14.01,2013-04-26 11:16:00,
2013-04-26 05:21:00,47.9,28.7,29.84,NNW,330,0.0,0.0,47,0.00,,BKN230,0.00,VWS V14.01,2013-04-26 11:21:00,
2013-04-26 05:26:00,47.3,29.6,29.84,NNW,330,0.0,0.0,50,0.00,,BKN230,0.00,VWS V14.01,2013-04-26 11:26:00,
2013-04-26 05:31:00,46.7,29.1,29.85,NNW,330,0.0,0.0,50,0.00,,BKN230,0.00,VWS V14.01,2013-04-26 11:31:00,
2013-04-26 05:36:00,46.1,30.4,29.85,NNW,330,0.0,0.0,54,0.00,,BKN230,0.00,VWS V14.01,2013-04-26 11:36:00,
2013-04-26 05:41:00,45.4,30.6,29.85,NNW,330,0.0,0.0,56,0.00,,BKN230,0.00,VWS V14.01,2013-04-26 11:41:00,
2013-04-26 05:46:00,44.6,29.9,29.86,NNW,330,0.0,0.0,56,0.00,,BKN230,0.00,VWS V14.01,2013-04-26 11:46:00,
2013-04-26 05:51:00,44.3,30.5,29.86,NNW,330,0.0,0.0,58,0.00,,BKN230,0.00,VWS V14.01,2013-04-26 11:51:00,
2013-04-26 05:56:00,44.2,30.0,29.86,ESE,110,0.0,0.0,57,0.00,,BKN230,0.00,VWS V14.01,2013-04-26 11:56:00,
2013-04-26 06:01:00,44.1,29.9,29.87,ESE,110,0.0,0.0,57,0.00,,BKN230,0.00,VWS V14.01,2013-04-26 12:01:00,
2013-04-26 06:06:00,44.1,29.4,29.87,ENE,73,0.0,0.0,56,0.00,,BKN230,0.00,VWS V14.01,2013-04-26 12:06:00,
2013-04-26 06:11:00,44.6,27.6,29.87,ENE,73,0.0,0.0,51,0.00,,BKN230,0.00,VWS V14.01,2013-04-26 12:11:00,
2013-04-26 06:16:00,45.1,28.5,29.86,ENE,73,0.0,0.0,52,0.00,,BKN230,0.00,VWS V14.01,2013-04-26 12:16:00,
2013-04-26 06:21:00,45.4,27.9,29.86,ENE,73,0.0,0.0,50,0.00,,BKN230,0.00,VWS V14.01,2013-04-26 12:21:00,
2013-04-26 06:26:00,46.1,27.0,29.86,ENE,70,0.0,0.0,47,0.00,,BKN230,0.00,VWS V14.01,2013-04-26 12:26:00,
2013-04-26 06:31:00,46.5,27.4,29.84,NW,314,0.0,0.0,47,0.00,,BKN230,0.00,VWS V14.01,2013-04-26 12:31:00,
2013-04-26 06:36:00,46.5,27.4,29.84,NW,314,0.0,0.0,47,0.00,,OVC240,0.00,VWS V14.01,2013-04-26 12:36:00,
2013-04-26 06:41:00,46.5,27.9,29.84,NW,314,0.0,0.0,48,0.00,,OVC240,0.00,VWS V14.01,2013-04-26 12:41:00,
2013-04-26 06:46:00,46.2,28.1,29.85,NW,314,0.0,0.0,49,0.00,,OVC240,0.00,VWS V14.01,2013-04-26 12:46:00,
2013-04-26 06:51:00,45.8,29.2,29.85,NW,314,0.0,0.0,52,0.00,,OVC240,0.00,VWS V14.01,2013-04-26 12:51:00,
2013-04-26 06:56:00,45.7,27.6,29.85,NW,311,0.0,0.0,49,0.00,,OVC240,0.00,VWS V14.01,2013-04-26 12:56:00,
2013-04-26 07:01:00,46.0,27.9,29.84,ESE,113,0.0,2.0,49,0.00,,OVC240,0.00,VWS V14.01,2013-04-26 13:01:00,
2013-04-26 07:06:00,46.8,26.0,29.84,NNW,331,0.0,0.0,44,0.00,,OVC240,0.00,VWS V14.01,2013-04-26 13:06:00,
2013-04-26 07:11:00,48.0,26.0,29.84,North,358,0.0,0.0,42,0.00,,OVC240,0.00,VWS V14.01,2013-04-26 13:11:00,
2013-04-26 07:16:00,48.8,27.3,29.83,NNW,332,0.0,0.0,43,0.00,,OVC240,0.00,VWS V14.01,2013-04-26 13:16:00,
2013-04-26 07:21:00,48.5,27.6,29.83,NNW,330,0.0,0.0,44,0.00,,OVC240,0.00,VWS V14.01,2013-04-26 13:21:00,
2013-04-26 07:26:00,48.0,27.7,29.83,NNW,330,0.0,0.0,45,0.00,,OVC240,0.00,VWS V14.01,2013-04-26 13:26:00,
2013-04-26 07:31:00,47.6,27.9,29.84,NNW,330,0.0,0.0,46,0.00,,OVC240,0.00,VWS V14.01,2013-04-26 13:31:00,
2013-04-26 07:36:00,47.1,27.9,29.84,NNW,330,0.0,0.0,47,0.00,,BKN120,0.00,VWS V14.01,2013-04-26 13:36:00,
2013-04-26 07:41:00,46.7,27.6,29.84,NNW,330,0.0,0.0,47,0.00,,BKN120,0.00,VWS V14.01,2013-04-26 13:41:00,
2013-04-26 07:46:00,46.5,27.4,29.85,NNW,330,0.0,0.0,47,0.00,,BKN120,0.00,VWS V14.01,2013-04-26 13:46:00,
2013-04-26 07:51:00,46.5,27.9,29.85,NNW,330,0.0,0.0,48,0.00,,BKN120,0.00,VWS V14.01,2013-04-26 13:51:00,
2013-04-26 07:56:00,46.4,28.3,29.85,NNW,330,0.0,0.0,49,0.00,,BKN120,0.00,VWS V14.01,2013-04-26 13:56:00,
2013-04-26 08:01:00,46.7,27.0,29.85,NW,309,0.0,0.0,46,0.00,,BKN120,0.00,VWS V14.01,2013-04-26 14:01:00,
2013-04-26 08:06:00,47.1,28.9,29.85,WNW,286,0.0,0.0,49,0.00,,BKN120,0.00,VWS V14.01,2013-04-26 14:06:00,
2013-04-26 08:11:00,46.8,29.6,29.85,WNW,286,0.0,0.0,51,0.00,,BKN120,0.00,VWS V14.01,2013-04-26 14:11:00,
2013-04-26 08:16:00,46.7,29.1,29.87,WNW,286,0.0,0.0,50,0.00,,BKN120,0.00,VWS V14.01,2013-04-26 14:16:00,
2013-04-26 08:21:00,46.5,29.4,29.87,SE,136,0.0,0.0,51,0.00,,BKN120,0.00,VWS V14.01,2013-04-26 14:21:00,
2013-04-26 08:25:00,46.7,29.5,29.87,SE,134,0.0,0.0,51,0.00,,BKN120,0.00,VWS V14.01,2013-04-26 14:25:00,
2013-04-26 08:31:00,47.0,29.3,29.87,North,354,0.0,0.0,50,0.00,,BKN120,0.00,VWS V14.01,2013-04-26 14:31:00,
2013-04-26 08:36:00,47.9,28.1,29.87,North,354,0.0,0.0,46,0.00,,BKN180,0.00,VWS V14.01,2013-04-26 14:36:00,
2013-04-26 08:40:00,48.8,27.9,29.87,North,354,0.0,0.0,44,0.00,,BKN180,0.00,VWS V14.01,2013-04-26 14:40:00,
2013-04-26 08:45:00,49.6,25.7,29.86,NNE,30,0.0,0.0,39,0.00,,BKN180,0.00,VWS V14.01,2013-04-26 14:45:00,
2013-04-26 08:50:00,50.7,27.3,29.86,NNE,28,0.0,0.0,40,0.00,,BKN180,0.00,VWS V14.01,2013-04-26 14:50:00,
2013-04-26 08:55:00,51.1,27.0,29.86,NNE,26,0.0,0.0,39,0.00,,BKN180,0.00,VWS V14.01,2013-04-26 14:55:00,
2013-04-26 09:00:00,52.0,26.5,29.85,NW,326,0.0,2.0,37,0.00,,BKN180,0.00,VWS V14.01,2013-04-26 15:00:00,
2013-04-26 09:05:00,52.6,26.4,29.85,NNW,329,0.0,0.0,36,0.00,,BKN180,0.00,VWS V14.01,2013-04-26 15:05:00,
2013-04-26 09:10:00,52.9,26.0,29.85,NNW,338,0.0,0.0,35,0.00,,BKN180,0.00,VWS V14.01,2013-04-26 15:10:00,
2013-04-26 09:15:00,53.1,26.9,29.86,North,3,0.0,0.0,36,0.00,,BKN180,0.00,VWS V14.01,2013-04-26 15:15:00,
2013-04-26 09:20:00,53.3,25.7,29.86,NNW,347,0.0,0.0,34,0.00,,BKN180,0.00,VWS V14.01,2013-04-26 15:20:00,
2013-04-26 09:25:00,53.5,27.2,29.86,ENE,65,0.0,0.0,36,0.00,,BKN180,0.00,VWS V14.01,2013-04-26 15:25:00,
2013-04-26 09:30:00,53.8,26.8,29.85,NW,325,0.0,2.0,35,0.00,,BKN180,0.00,VWS V14.01,2013-04-26 15:30:00,
2013-04-26 09:35:00,53.9,26.2,29.85,North,357,0.0,0.0,34,0.00,,BKN210,0.00,VWS V14.01,2013-04-26 15:35:00,
2013-04-26 09:40:00,54.1,26.4,29.85,NW,321,0.0,0.0,34,0.00,,BKN210,0.00,VWS V14.01,2013-04-26 15:40:00,
2013-04-26 09:45:00,54.4,25.9,29.85,NW,322,0.0,1.0,33,0.00,,BKN210,0.00,VWS V14.01,2013-04-26 15:45:00,
2013-04-26 09:50:00,54.7,25.4,29.85,NNW,339,0.0,1.0,32,0.00,,BKN210,0.00,VWS V14.01,2013-04-26 15:50:00,
2013-04-26 09:55:00,54.8,25.5,29.85,NW,315,0.0,1.0,32,0.00,,BKN210,0.00,VWS V14.01,2013-04-26 15:55:00,
2013-04-26 10:00:00,55.0,25.7,29.83,NW,317,0.0,1.0,32,0.00,,BKN210,0.00,VWS V14.01,2013-04-26 16:00:00,
2013-04-26 10:05:00,55.3,26.0,29.83,NW,316,0.0,1.0,32,0.00,,BKN210,0.00,VWS V14.01,2013-04-26 16:05:00,
2013-04-26 10:10:00,55.4,25.3,29.83,NW,314,0.0,3.0,31,0.00,,BKN210,0.00,VWS V14.01,2013-04-26 16:10:00,
2013-04-26 10:15:00,55.6,24.7,29.85,NW,312,0.0,3.0,30,0.00,,BKN210,0.00,VWS V14.01,2013-04-26 16:15:00,
2013-04-26 10:20:00,55.4,26.0,29.85,NW,316,0.0,3.0,32,0.00,,BKN210,0.00,VWS V14.01,2013-04-26 16:20:00,
2013-04-26 10:25:00,55.6,25.5,29.85,WNW,302,1.0,3.0,31,0.00,,BKN210,0.00,VWS V14.01,2013-04-26 16:25:00,
2013-04-26 10:30:00,55.6,25.5,29.84,NW,312,0.0,3.0,31,0.00,,BKN210,0.00,VWS V14.01,2013-04-26 16:30:00,
2013-04-26 10:35:00,55.9,24.9,29.84,NW,325,0.0,4.0,30,0.00,,BKN210,0.00,VWS V14.01,2013-04-26 16:35:00,
2013-04-26 10:40:00,56.0,25.0,29.84,NW,312,1.0,4.0,30,0.00,,BKN210,0.00,VWS V14.01,2013-04-26 16:40:00,
2013-04-26 10:45:00,56.2,25.2,29.84,NW,308,0.0,4.0,30,0.00,,BKN210,0.00,VWS V14.01,2013-04-26 16:45:00,
2013-04-26 10:50:00,56.3,24.5,29.84,WNW,300,0.0,4.0,29,0.00,,BKN210,0.00,VWS V14.01,2013-04-26 16:50:00,
2013-04-26 10:55:00,56.5,24.6,29.84,WNW,303,0.0,4.0,29,0.00,,BKN210,0.00,VWS V14.01,2013-04-26 16:55:00,
2013-04-26 11:00:00,56.6,24.7,29.83,NW,306,0.0,4.0,29,0.00,,BKN210,0.00,VWS V14.01,2013-04-26 17:00:00,
2013-04-26 11:05:00,56.9,25.0,29.83,NW,306,0.0,0.0,29,0.00,,BKN210,0.00,VWS V14.01,2013-04-26 17:05:00,
2013-04-26 11:10:00,57.3,24.5,29.83,NNW,335,0.0,3.0,28,0.00,,BKN210,0.00,VWS V14.01,2013-04-26 17:10:00,
2013-04-26 11:15:00,57.3,24.5,29.83,ESE,108,0.0,4.0,28,0.00,,BKN210,0.00,VWS V14.01,2013-04-26 17:15:00,
2013-04-26 11:20:00,57.3,25.3,29.83,NNW,327,3.0,4.0,29,0.00,,BKN210,0.00,VWS V14.01,2013-04-26 17:20:00,
2013-04-26 11:25:00,57.3,24.5,29.83,NW,319,1.0,4.0,28,0.00,,BKN210,0.00,VWS V14.01,2013-04-26 17:25:00,
2013-04-26 11:30:00,57.3,24.5,29.83,NNW,342,1.0,4.0,28,0.00,,BKN210,0.00,VWS V14.01,2013-04-26 17:30:00,
2013-04-26 11:35:00,57.6,25.6,29.83,East,81,0.0,3.0,29,0.00,,BKN210,0.00,VWS V14.01,2013-04-26 17:35:00,
2013-04-26 11:40:00,58.0,25.1,29.83,NW,304,0.0,4.0,28,0.00,,BKN210,0.00,VWS V14.01,2013-04-26 17:40:00,
2013-04-26 11:45:00,57.8,24.1,29.83,NNW,345,0.0,4.0,27,0.00,,BKN210,0.00,VWS V14.01,2013-04-26 17:45:00,
2013-04-26 11:50:00,58.1,25.2,29.83,NW,319,0.0,5.0,28,0.00,,BKN210,0.00,VWS V14.01,2013-04-26 17:50:00,
2013-04-26 11:55:00,58.0,24.2,29.83,NW,309,3.0,5.0,27,0.00,,BKN210,0.00,VWS V14.01,2013-04-26 17:55:00,
2013-04-26 12:00:00,57.8,24.9,29.83,NW,308,0.0,5.0,28,0.00,,BKN210,0.00,VWS V14.01,2013-04-26 18:00:00,
2013-04-26 12:05:00,58.0,25.1,29.83,NNW,328,0.0,3.0,28,0.00,,BKN210,0.00,VWS V14.01,2013-04-26 18:05:00,
2013-04-26 12:10:00,58.0,25.1,29.83,WNW,302,0.0,3.0,28,0.00,,BKN210,0.00,VWS V14.01,2013-04-26 18:10:00,
2013-04-26 12:15:00,58.1,25.2,29.83,North,0,0.0,5.0,28,0.00,,BKN210,0.00,VWS V14.01,2013-04-26 18:15:00,
2013-04-26 12:20:00,58.1,25.2,29.83,NNW,341,0.0,5.0,28,0.00,,BKN210,0.00,VWS V14.01,2013-04-26 18:20:00,
2013-04-26 12:25:00,58.1,25.2,29.83,NW,304,2.0,5.0,28,0.00,,BKN210,0.00,VWS V14.01,2013-04-26 18:25:00,
2013-04-26 12:30:00,58.1,25.2,29.82,NW,322,0.0,5.0,28,0.00,,BKN210,0.00,VWS V14.01,2013-04-26 18:30:00,
2013-04-26 12:35:00,58.6,25.6,29.82,NNW,333,0.0,3.0,28,0.00,,BKN240,0.00,VWS V14.01,2013-04-26 18:35:00,
2013-04-26 12:40:00,59.0,26.0,29.82,NNW,339,2.0,4.0,28,0.00,,BKN240,0.00,VWS V14.01,2013-04-26 18:40:00,
2013-04-26 12:45:00,58.9,25.9,29.82,NNW,329,0.0,4.0,28,0.00,,BKN240,0.00,VWS V14.01,2013-04-26 18:45:00,
2013-04-26 12:50:00,59.3,25.4,29.82,NW,325,0.0,4.0,27,0.00,,BKN240,0.00,VWS V14.01,2013-04-26 18:50:00,
2013-04-26 12:55:00,58.7,25.7,29.82,NW,309,1.0,4.0,28,0.00,,BKN240,0.00,VWS V14.01,2013-04-26 18:55:00,
2013-04-26 13:00:00,58.7,25.7,29.82,NW,318,0.0,4.0,28,0.00,,BKN240,0.00,VWS V14.01,2013-04-26 19:00:00,
2013-04-26 13:05:00,59.3,26.2,29.82,NW,304,0.0,2.0,28,0.00,,BKN240,0.00,VWS V14.01,2013-04-26 19:05:00,
2013-04-26 13:10:00,60.4,26.3,29.82,NW,311,1.0,2.0,27,0.00,,BKN240,0.00,VWS V14.01,2013-04-26 19:10:00,
2013-04-26 13:15:00,60.4,27.2,29.80,NW,312,0.0,2.0,28,0.00,,BKN240,0.00,VWS V14.01,2013-04-26 19:15:00,
2013-04-26 13:20:00,60.2,26.1,29.80,NW,324,0.0,2.0,27,0.00,,BKN240,0.00,VWS V14.01,2013-04-26 19:20:00,
2013-04-26 13:25:00,60.5,25.5,29.80,SE,146,0.0,4.0,26,0.00,,BKN240,0.00,VWS V14.01,2013-04-26 19:25:00,
2013-04-26 13:30:00,60.9,25.8,29.80,NNW,335,0.0,4.0,26,0.00,,BKN240,0.00,VWS V14.01,2013-04-26 19:30:00,
2013-04-26 13:35:00,60.9,25.8,29.80,NW,320,0.0,1.0,26,0.00,,BKN220,0.00,VWS V14.01,2013-04-26 19:35:00,
2013-04-26 13:40:00,61.0,26.8,29.80,SE,134,0.0,2.0,27,0.00,,BKN220,0.00,VWS V14.01,2013-04-26 19:40:00,
2013-04-26 13:45:00,60.5,25.5,29.80,NW,309,0.0,2.0,26,0.00,,BKN220,0.00,VWS V14.01,2013-04-26 19:45:00,
2013-04-26 13:50:00,60.5,25.5,29.80,NW,307,2.0,3.0,26,0.00,,BKN220,0.00,VWS V14.01,2013-04-26 19:50:00,
2013-04-26 13:55:00,60.5,25.5,29.80,South,169,0.0,3.0,26,0.00,,BKN220,0.00,VWS V14.01,2013-04-26 19:55:00,
2013-04-26 14:00:00,60.4,25.4,29.80,NW,312,0.0,3.0,26,0.00,,BKN220,0.00,VWS V14.01,2013-04-26 20:00:00,
2013-04-26 14:05:00,59.6,24.7,29.80,ESE,123,0.0,4.0,26,0.00,,BKN220,0.00,VWS V14.01,2013-04-26 20:05:00,
2013-04-26 14:10:00,59.5,24.6,29.80,WNW,285,0.0,14.0,26,0.00,,BKN220,0.00,VWS V14.01,2013-04-26 20:10:00,
2013-04-26 14:15:00,59.6,24.7,29.80,NW,317,0.0,14.0,26,0.00,,BKN220,0.00,VWS V14.01,2013-04-26 20:15:00,
2013-04-26 14:20:00,60.1,25.1,29.80,NW,315,2.0,14.0,26,0.00,,BKN220,0.00,VWS V14.01,2013-04-26 20:20:00,
2013-04-26 14:25:00,60.1,24.2,29.80,WNW,298,0.0,14.0,25,0.00,,BKN220,0.00,VWS V14.01,2013-04-26 20:25:00,
2013-04-26 14:30:00,60.2,24.3,29.80,NW,321,0.0,14.0,25,0.00,,BKN220,0.00,VWS V14.01,2013-04-26 20:30:00,
2013-04-26 14:35:00,60.1,24.2,29.80,NW,323,3.0,15.0,25,0.00,,BKN220,0.00,VWS V14.01,2013-04-26 20:35:00,
2013-04-26 14:40:00,60.2,24.3,29.80,NW,326,2.0,15.0,25,0.00,,BKN220,0.00,VWS V14.01,2013-04-26 20:40:00,
2013-04-26 14:45:00,60.2,25.2,29.80,SE,136,0.0,15.0,26,0.00,,BKN220,0.00,VWS V14.01,2013-04-26 20:45:00,
2013-04-26 14:50:00,60.7,24.7,29.80,NW,313,1.0,15.0,25,0.00,,BKN220,0.00,VWS V14.01,2013-04-26 20:50:00,
2013-04-26 14:55:00,60.7,23.7,29.80,NNW,340,0.0,15.0,24,0.00,,BKN220,0.00,VWS V14.01,2013-04-26 20:55:00,
2013-04-26 15:00:00,60.4,24.4,29.80,NW,318,3.0,15.0,25,0.00,,BKN220,0.00,VWS V14.01,2013-04-26 21:00:00,
2013-04-26 15:05:00,60.1,25.1,29.80,NW,314,0.0,3.0,26,0.00,,BKN220,0.00,VWS V14.01,2013-04-26 21:05:00,
2013-04-26 15:10:00,60.4,24.4,29.80,WNW,291,1.0,3.0,25,0.00,,BKN220,0.00,VWS V14.01,2013-04-26 21:10:00,
2013-04-26 15:15:00,60.4,24.4,29.80,SW,233,0.0,3.0,25,0.00,,BKN220,0.00,VWS V14.01,2013-04-26 21:15:00,
2013-04-26 15:20:00,60.7,24.7,29.83,NNW,329,0.0,3.0,25,0.00,,BKN220,0.00,VWS V14.01,2013-04-26 21:20:00,
2013-04-26 15:25:00,60.9,23.9,29.83,NNW,337,0.0,4.0,24,0.00,,BKN220,0.00,VWS V14.01,2013-04-26 21:25:00,
2013-04-26 15:30:00,61.2,23.1,29.83,NNW,327,0.0,4.0,23,0.00,,BKN220,0.00,VWS V14.01,2013-04-26 21:30:00,
2013-04-26 15:35:00,61.3,24.2,29.82,North,352,0.0,4.0,24,0.00,,BKN220,0.00,VWS V14.01,2013-04-26 21:35:00,
2013-04-26 15:40:00,61.3,24.2,29.82,NW,326,1.0,4.0,24,0.00,,BKN220,0.00,VWS V14.01,2013-04-26 21:40:00,
2013-04-26 15:45:00,61.8,22.6,29.82,NNW,341,2.0,4.0,22,0.00,,BKN220,0.00,VWS V14.01,2013-04-26 21:45:00,
2013-04-26 15:50:00,61.8,23.6,29.82,NW,322,0.0,4.0,23,0.00,,BKN220,0.00,VWS V14.01,2013-04-26 21:50:00,
2013-04-26 15:55:00,62.4,24.1,29.82,NNW,340,1.0,4.0,23,0.00,,BKN220,0.00,VWS V14.01,2013-04-26 21:55:00,
2013-04-26 16:00:00,62.9,23.5,29.82,North,354,0.0,5.0,22,0.00,,BKN220,0.00,VWS V14.01,2013-04-26 22:00:00,
2013-04-26 16:05:00,62.9,24.6,29.81,North,349,0.0,1.0,23,0.00,,BKN220,0.00,VWS V14.01,2013-04-26 22:05:00,
2013-04-26 16:10:00,63.1,23.7,29.81,ESE,118,0.0,1.0,22,0.00,,BKN220,0.00,VWS V14.01,2013-04-26 22:10:00,
2013-04-26 16:15:00,62.7,23.3,29.81,NW,307,2.0,3.0,22,0.00,,BKN220,0.00,VWS V14.01,2013-04-26 22:15:00,
2013-04-26 16:20:00,61.3,24.2,29.79,North,351,0.0,3.0,24,0.00,,BKN220,0.00,VWS V14.01,2013-04-26 22:20:00,
2013-04-26 16:25:00,61.5,23.4,29.79,NNW,338,0.0,3.0,23,0.00,,BKN220,0.00,VWS V14.01,2013-04-26 22:25:00,
2013-04-26 16:30:00,61.8,23.6,29.79,NNW,345,0.0,3.0,23,0.00,,BKN220,0.00,VWS V14.01,2013-04-26 22:30:00,
2013-04-26 16:35:00,61.0,24.0,29.81,NNE,25,0.0,3.0,24,0.00,,BKN220,0.00,VWS V14.01,2013-04-26 22:35:00,
2013-04-26 16:40:00,61.0,23.0,29.81,SE,128,0.0,3.0,23,0.00,,BKN220,0.00,VWS V14.01,2013-04-26 22:40:00,
2013-04-26 16:45:00,61.3,24.2,29.81,NW,320,0.0,3.0,24,0.00,,BKN220,0.00,VWS V14.01,2013-04-26 22:45:00,
2013-04-26 16:50:00,60.7,23.7,29.81,NW,308,0.0,3.0,24,0.00,,BKN220,0.00,VWS V14.01,2013-04-26 22:50:00,
2013-04-26 16:55:00,60.2,24.3,29.81,NW,318,0.0,3.0,25,0.00,,BKN220,0.00,VWS V14.01,2013-04-26 22:55:00,
2013-04-26 17:00:00,59.9,23.0,29.81,NW,317,0.0,3.0,24,0.00,,BKN220,0.00,VWS V14.01,2013-04-26 23:00:00,
2013-04-26 17:05:00,59.5,23.7,29.82,North,349,0.0,3.0,25,0.00,,BKN220,0.00,VWS V14.01,2013-04-26 23:05:00,
2013-04-26 17:10:00,59.2,23.4,29.82,SE,134,0.0,3.0,25,0.00,,BKN220,0.00,VWS V14.01,2013-04-26 23:10:00,
2013-04-26 17:15:00,59.0,23.2,29.82,ESE,110,0.0,3.0,25,0.00,,BKN220,0.00,VWS V14.01,2013-04-26 23:15:00,
2013-04-26 17:20:00,58.9,24.1,29.85,West,280,0.0,3.0,26,0.00,,BKN220,0.00,VWS V14.01,2013-04-26 23:20:00,
2013-04-26 17:25:00,58.9,24.1,29.85,NW,314,0.0,3.0,26,0.00,,BKN220,0.00,VWS V14.01,2013-04-26 23:25:00,
2013-04-26 17:30:00,58.7,23.9,29.85,North,11,0.0,3.0,26,0.00,,BKN220,0.00,VWS V14.01,2013-04-26 23:30:00,
2013-04-26 17:35:00,58.6,23.8,29.85,NNW,334,0.0,1.0,26,0.00,,SCT200,0.00,VWS V14.01,2013-04-26 23:35:00,
2013-04-26 17:40:00,58.4,23.7,29.85,North,358,0.0,2.0,26,0.00,,SCT200,0.00,VWS V14.01,2013-04-26 23:40:00,
2013-04-26 17:45:00,58.3,23.6,29.85,NW,323,0.0,2.0,26,0.00,,SCT200,0.00,VWS V14.01,2013-04-26 23:45:00,
2013-04-26 17:50:00,58.1,23.4,29.85,North,354,0.0,2.0,26,0.00,,SCT200,0.00,VWS V14.01,2013-04-26 23:50:00,
2013-04-26 18:05:00,57.8,24.9,29.85,NW,320,0.0,0.0,28,0.00,,SCT200,0.00,VWS V14.01,2013-04-27 00:05:00,
2013-04-26 18:10:00,57.6,23.9,29.85,NW,306,0.0,2.0,27,0.00,,SCT200,0.00,VWS V14.01,2013-04-27 00:10:00,
2013-04-26 18:15:00,57.5,23.8,29.83,NW,316,0.0,2.0,27,0.00,,SCT200,0.00,VWS V14.01,2013-04-27 00:15:00,
2013-04-26 18:20:00,57.5,24.7,29.83,North,0,0.0,2.0,28,0.00,,SCT200,0.00,VWS V14.01,2013-04-27 00:20:00,
2013-04-26 18:25:00,57.6,24.8,29.83,NNE,26,0.0,2.0,28,0.00,,SCT200,0.00,VWS V14.01,2013-04-27 00:25:00,
2013-04-26 18:30:00,57.6,23.9,29.83,WNW,302,0.0,3.0,27,0.00,,SCT200,0.00,VWS V14.01,2013-04-27 00:30:00,
2013-04-26 18:35:00,57.6,23.9,29.83,NW,304,0.0,3.0,27,0.00,,FEW240,0.00,VWS V14.01,2013-04-27 00:35:00,
2013-04-26 18:40:00,57.3,23.6,29.83,NNW,340,0.0,3.0,27,0.00,,FEW240,0.00,VWS V14.01,2013-04-27 00:40:00,
2013-04-26 18:45:00,57.2,24.4,29.84,NW,321,0.0,3.0,28,0.00,,FEW240,0.00,VWS V14.01,2013-04-27 00:45:00,
2013-04-26 18:50:00,57.0,24.2,29.84,NNW,347,0.0,3.0,28,0.00,,FEW240,0.00,VWS V14.01,2013-04-27 00:50:00,
2013-04-26 18:55:00,56.9,23.3,29.84,North,358,0.0,13.0,27,0.00,,FEW240,0.00,VWS V14.01,2013-04-27 00:55:00,
2013-04-26 19:00:00,56.7,24.0,29.84,NW,318,0.0,13.0,28,0.00,,FEW240,0.00,VWS V14.01,2013-04-27 01:00:00,
2013-04-26 19:05:00,56.6,23.9,29.84,SSE,148,0.0,2.0,28,0.00,,FEW240,0.00,VWS V14.01,2013-04-27 01:05:00,
2013-04-26 19:10:00,56.5,23.8,29.84,NNW,339,0.0,2.0,28,0.00,,FEW240,0.00,VWS V14.01,2013-04-27 01:10:00,
2013-04-26 19:15:00,56.3,23.6,29.83,North,355,0.0,2.0,28,0.00,,FEW240,0.00,VWS V14.01,2013-04-27 01:15:00,
2013-04-26 19:20:00,56.2,23.5,29.83,North,8,0.0,4.0,28,0.00,,FEW240,0.00,VWS V14.01,2013-04-27 01:20:00,
2013-04-26 19:25:00,56.0,23.4,29.83,NNW,336,0.0,4.0,28,0.00,,FEW240,0.00,VWS V14.01,2013-04-27 01:25:00,
2013-04-26 19:30:00,55.7,23.1,29.83,North,358,1.0,4.0,28,0.00,,FEW240,0.00,VWS V14.01,2013-04-27 01:30:00,
2013-04-26 19:35:00,55.6,23.9,29.83,NW,324,0.0,4.0,29,0.00,,SCT240,0.00,VWS V14.01,2013-04-27 01:35:00,
2013-04-26 19:40:00,55.4,24.5,29.83,North,0,0.0,4.0,30,0.00,,SCT240,0.00,VWS V14.01,2013-04-27 01:40:00,
2013-04-26 19:45:00,55.1,25.0,29.83,East,94,0.0,4.0,31,0.00,,SCT240,0.00,VWS V14.01,2013-04-27 01:45:00,
2013-04-26 19:50:00,55.0,24.9,29.83,NW,319,0.0,9.0,31,0.00,,SCT240,0.00,VWS V14.01,2013-04-27 01:50:00,
2013-04-26 19:55:00,54.7,24.7,29.83,NNW,331,0.0,9.0,31,0.00,,SCT240,0.00,VWS V14.01,2013-04-27 01:55:00,
2013-04-26 20:00:00,54.4,25.2,29.83,NNW,335,0.0,9.0,32,0.00,,SCT240,0.00,VWS V14.01,2013-04-27 02:00:00,
2013-04-26 20:05:00,54.2,25.7,29.83,SSE,155,0.0,2.0,33,0.00,,SCT240,0.00,VWS V14.01,2013-04-27 02:05:00,
2013-04-26 20:10:00,53.9,25.5,29.83,West,276,0.0,13.0,33,0.00,,SCT240,0.00,VWS V14.01,2013-04-27 02:10:00,
2013-04-26 20:15:00,53.9,25.5,29.82,NW,325,0.0,13.0,33,0.00,,SCT240,0.00,VWS V14.01,2013-04-27 02:15:00,
2013-04-26 20:20:00,53.6,25.9,29.82,NNE,26,0.0,13.0,34,0.00,,SCT240,0.00,VWS V14.01,2013-04-27 02:20:00,
2013-04-26 20:25:00,53.5,26.5,29.82,NW,311,1.0,13.0,35,0.00,,SCT240,0.00,VWS V14.01,2013-04-27 02:25:00,
2013-04-26 20:30:00,53.2,26.3,29.84,NW,316,0.0,13.0,35,0.00,,SCT240,0.00,VWS V14.01,2013-04-27 02:30:00,
2013-04-26 20:35:00,53.1,26.9,29.84,ESE,120,1.0,5.0,36,0.00,,SCT250,0.00,VWS V14.01,2013-04-27 02:35:00,
2013-04-26 20:40:00,52.9,26.7,29.84,North,358,0.0,5.0,36,0.00,,SCT250,0.00,VWS V14.01,2013-04-27 02:40:00,
2013-04-26 20:45:00,52.8,26.6,29.85,North,356,0.0,5.0,36,0.00,,SCT250,0.00,VWS V14.01,2013-04-27 02:45:00,
2013-04-26 20:50:00,52.6,26.4,29.85,ESE,115,0.0,5.0,36,0.00,,SCT250,0.00,VWS V14.01,2013-04-27 02:50:00,
2013-04-26 20:55:00,52.5,26.3,29.85,NNW,344,0.0,5.0,36,0.00,,SCT250,0.00,VWS V14.01,2013-04-27 02:55:00,
2013-04-26 21:00:00,52.3,26.8,29.84,NNW,327,0.0,5.0,37,0.00,,SCT250,0.00,VWS V14.01,2013-04-27 03:00:00,
2013-04-26 21:05:00,52.2,26.7,29.84,NW,308,0.0,0.0,37,0.00,,SCT250,0.00,VWS V14.01,2013-04-27 03:05:00,
2013-04-26 21:10:00,52.0,27.2,29.84,NNE,27,0.0,0.0,38,0.00,,SCT250,0.00,VWS V14.01,2013-04-27 03:10:00,
2013-04-26 21:15:00,51.9,27.1,29.83,NW,319,0.0,0.0,38,0.00,,SCT250,0.00,VWS V14.01,2013-04-27 03:15:00,
2013-04-26 21:20:00,51.7,26.9,29.83,NW,319,0.0,0.0,38,0.00,,SCT250,0.00,VWS V14.01,2013-04-27 03:20:00,
2013-04-26 21:25:00,51.7,27.6,29.83,North,0,0.0,0.0,39,0.00,,SCT250,0.00,VWS V14.01,2013-04-27 03:25:00,
2013-04-26 21:30:00,51.4,27.9,29.84,ESE,107,0.0,0.0,40,0.00,,SCT250,0.00,VWS V14.01,2013-04-27 03:30:00,
2013-04-26 21:35:00,51.1,28.2,29.84,NW,320,0.0,0.0,41,0.00,,SCT230,0.00,VWS V14.01,2013-04-27 03:35:00,
2013-04-26 21:40:00,50.8,28.5,29.84,NNW,339,0.0,0.0,42,0.00,,SCT230,0.00,VWS V14.01,2013-04-27 03:40:00,
2013-04-26 21:45:00,50.5,28.3,29.84,NW,323,0.0,2.0,42,0.00,,SCT230,0.00,VWS V14.01,2013-04-27 03:45:00,
2013-04-26 21:50:00,50.2,28.0,29.84,NNW,340,0.0,2.0,42,0.00,,SCT230,0.00,VWS V14.01,2013-04-27 03:50:00,
2013-04-26 21:55:00,50.1,27.9,29.84,NNW,347,0.0,2.0,42,0.00,,SCT230,0.00,VWS V14.01,2013-04-27 03:55:00,
2013-04-26 22:00:00,49.8,27.6,29.84,NNW,345,0.0,2.0,42,0.00,,SCT230,0.00,VWS V14.01,2013-04-27 04:00:00,
2013-04-26 22:01:00,49.8,27.6,29.84,NNW,345,0.0,2.0,42,0.00,,SCT230,0.00,VWS V14.01,2013-04-27 04:01:00,
2013-04-26 22:06:00,49.8,27.6,29.84,North,8,0.0,0.0,42,0.00,,SCT230,0.00,VWS V14.01,2013-04-27 04:06:00,
2013-04-26 22:11:00,49.8,27.6,29.84,North,358,0.0,0.0,42,0.00,,SCT230,0.00,VWS V14.01,2013-04-27 04:11:00,
2013-04-26 22:16:00,49.9,26.6,29.83,NW,314,0.0,0.0,40,0.00,,SCT230,0.00,VWS V14.01,2013-04-27 04:16:00,
2013-04-26 22:21:00,50.1,25.5,29.83,NW,321,0.0,0.0,38,0.00,,SCT230,0.00,VWS V14.01,2013-04-27 04:21:00,
2013-04-26 22:26:00,50.4,27.0,29.83,NW,319,0.0,0.0,40,0.00,,SCT230,0.00,VWS V14.01,2013-04-27 04:26:00,
2013-04-26 22:31:00,50.2,26.8,29.83,NW,319,0.0,0.0,40,0.00,,SCT230,0.00,VWS V14.01,2013-04-27 04:31:00,
2013-04-26 22:36:00,50.1,24.9,29.83,NW,315,0.0,2.0,37,0.00,,SCT240,0.00,VWS V14.01,2013-04-27 04:36:00,
2013-04-26 22:41:00,50.7,24.1,29.83,ENE,64,0.0,2.0,35,0.00,,SCT240,0.00,VWS V14.01,2013-04-27 04:41:00,
2013-04-26 22:46:00,51.0,25.7,29.80,NW,318,2.0,2.0,37,0.00,,SCT240,0.00,VWS V14.01,2013-04-27 04:46:00,
2013-04-26 22:51:00,51.0,24.3,29.80,NNW,340,0.0,2.0,35,0.00,,SCT240,0.00,VWS V14.01,2013-04-27 04:51:00,
2013-04-26 22:56:00,51.1,23.7,29.80,NNW,333,0.0,9.0,34,0.00,,SCT240,0.00,VWS V14.01,2013-04-27 04:56:00,
2013-04-26 23:01:00,51.6,23.5,29.80,NW,325,0.0,2.0,33,0.00,,SCT240,0.00,VWS V14.01,2013-04-27 05:01:00,
2013-04-26 23:06:00,52.0,23.8,29.80,NNW,345,0.0,2.0,33,0.00,,SCT240,0.00,VWS V14.01,2013-04-27 05:06:00,
2013-04-26 23:11:00,52.2,23.2,29.80,NNE,18,0.0,2.0,32,0.00,,SCT240,0.00,VWS V14.01,2013-04-27 05:11:00,
2013-04-26 23:16:00,52.3,23.3,29.78,North,352,0.0,10.0,32,0.00,,SCT240,0.00,VWS V14.01,2013-04-27 05:16:00,
2013-04-26 23:21:00,52.3,23.3,29.78,NW,312,0.0,10.0,32,0.00,,SCT240,0.00,VWS V14.01,2013-04-27 05:21:00,
2013-04-26 23:26:00,52.3,22.6,29.78,NNE,18,0.0,10.0,31,0.00,,SCT240,0.00,VWS V14.01,2013-04-27 05:26:00,
2013-04-26 23:31:00,52.5,22.8,29.78,NNE,26,0.0,0.0,31,0.00,,SCT240,0.00,VWS V14.01,2013-04-27 05:31:00,
2013-04-26 23:36:00,52.6,22.9,29.78,NNW,344,0.0,9.0,31,0.00,,SCT230,0.00,VWS V14.01,2013-04-27 05:36:00,
2013-04-26 23:41:00,52.8,23.0,29.78,SE,128,0.0,11.0,31,0.00,,SCT230,0.00,VWS V14.01,2013-04-27 05:41:00,
2013-04-26 23:46:00,52.8,22.2,29.78,NW,319,0.0,11.0,30,0.00,,SCT230,0.00,VWS V14.01,2013-04-27 05:46:00,
2013-04-26 23:51:00,52.8,22.2,29.78,NW,308,0.0,12.0,30,0.00,,SCT230,0.00,VWS V14.01,2013-04-27 05:51:00,
2013-04-26 23:56:00,52.8,23.0,29.78,North,0,0.0,12.0,31,0.00,,SCT230,0.00,VWS V14.01,2013-04-27 05:56:00,